Time;durP1;ratioP1;P1;durP2;ratioP2;P2;SDS_P1;SDS_P2;PMS_P1;PMS_P2;Temp;Humidity;BMP_temperature;BMP_pressure;BME280_temperature;BME280_humidity;BME280_pressure;Samples;Min_cycle;Max_cycle;Signal;HPM_P1;HPM_P2
2021/01/27 00:01:51;;;;;;;7.22;4.95;;;1.80;99.90;;;;;;4972236;28;20209;-36
2021/01/27 00:04:21;;;;;;;4.15;3.50;;;1.80;99.90;;;;;;4967809;28;20224;-35
2021/01/27 00:06:52;;;;;;;5.75;3.50;;;1.80;99.90;;;;;;4982434;28;20220;-35
2021/01/27 00:09:22;;;;;;;3.75;3.20;;;1.80;99.90;;;;;;4977943;28;20213;-36
2021/01/27 00:11:53;;;;;;;151.73;25.75;;;1.80;99.90;;;;;;4977588;28;20245;-37
2021/01/27 00:14:23;;;;;;;6.53;4.20;;;1.80;99.90;;;;;;4981595;28;20208;-37
2021/01/27 00:16:54;;;;;;;5.07;4.20;;;1.80;99.90;;;;;;4968930;28;20221;-37
2021/01/27 00:19:25;;;;;;;5.35;4.25;;;1.80;99.90;;;;;;4983058;28;20685;-40
2021/01/27 00:21:55;;;;;;;5.40;4.60;;;1.80;99.90;;;;;;4969471;28;20205;-38
2021/01/27 00:24:25;;;;;;;8.05;4.85;;;1.80;99.90;;;;;;4981446;28;20254;-38
2021/01/27 00:26:55;;;;;;;5.38;4.85;;;1.80;99.90;;;;;;4974109;28;20209;-37
2021/01/27 00:29:26;;;;;;;5.68;4.25;;;1.90;99.90;;;;;;4981645;28;20193;-38
2021/01/27 00:31:57;;;;;;;5.00;4.10;;;1.90;99.90;;;;;;4983512;28;20197;-38
2021/01/27 00:34:28;;;;;;;5.43;4.47;;;1.90;99.90;;;;;;4974422;28;20300;-39
2021/01/27 00:36:58;;;;;;;4.70;4.30;;;1.90;99.90;;;;;;4980916;28;20258;-38
2021/01/27 00:39:28;;;;;;;10.88;4.95;;;1.90;99.90;;;;;;4979129;28;20197;-36
2021/01/27 00:41:58;;;;;;;5.57;3.90;;;2.00;99.90;;;;;;4977049;28;20208;-36
2021/01/27 00:44:28;;;;;;;5.40;4.30;;;2.00;99.90;;;;;;4985523;28;20271;-38
2021/01/27 00:46:59;;;;;;;5.78;4.28;;;2.00;99.90;;;;;;4981550;28;20209;-36
2021/01/27 00:49:29;;;;;;;7.30;4.78;;;2.00;99.90;;;;;;4965659;28;20253;-37
2021/01/27 00:52:00;;;;;;;5.22;4.25;;;2.00;99.90;;;;;;4977243;28;20209;-37
2021/01/27 00:54:30;;;;;;;4.88;4.05;;;2.00;99.90;;;;;;4978659;28;20197;-38
2021/01/27 00:57:00;;;;;;;5.50;4.28;;;2.00;99.90;;;;;;4975521;28;20231;-38
2021/01/27 00:59:30;;;;;;;5.18;4.68;;;2.00;99.90;;;;;;4983983;28;20189;-39
2021/01/27 01:02:01;;;;;;;5.82;4.20;;;2.10;99.90;;;;;;4980351;28;20516;-44
2021/01/27 01:04:32;;;;;;;6.20;4.20;;;2.20;99.90;;;;;;4982681;28;20211;-48
2021/01/27 01:07:02;;;;;;;3.90;3.50;;;2.20;99.90;;;;;;4974569;28;20208;-43
2021/01/27 01:09:32;;;;;;;3.63;3.33;;;2.30;99.90;;;;;;4979032;28;20208;-46
2021/01/27 01:12:03;;;;;;;4.85;3.90;;;2.40;99.90;;;;;;4975305;28;20228;-50
2021/01/27 01:14:36;;;;;;;4.95;3.55;;;2.40;99.90;;;;;;4972323;28;20192;-50
2021/01/27 01:17:07;;;;;;;3.67;2.60;;;2.50;99.90;;;;;;4978011;28;20248;-46
2021/01/27 01:19:37;;;;;;;3.80;3.40;;;2.50;99.90;;;;;;4979967;28;20201;-50
2021/01/27 01:22:07;;;;;;;4.13;3.45;;;2.60;99.90;;;;;;4979846;28;20201;-45
2021/01/27 01:24:38;;;;;;;3.55;2.80;;;2.60;99.90;;;;;;4981408;28;20223;-45
2021/01/27 01:27:08;;;;;;;3.38;2.97;;;2.60;99.90;;;;;;4978148;28;20208;-42
2021/01/27 01:29:39;;;;;;;3.88;3.40;;;2.60;99.90;;;;;;4980923;28;20236;-45
2021/01/27 01:32:10;;;;;;;3.45;2.65;;;2.70;99.90;;;;;;4979031;28;20204;-44
2021/01/27 01:34:40;;;;;;;3.17;2.90;;;2.70;99.90;;;;;;4979339;28;20200;-50
2021/01/27 01:37:10;;;;;;;3.00;2.70;;;2.80;99.90;;;;;;4980048;28;20232;-43
2021/01/27 01:39:40;;;;;;;4.72;2.88;;;2.80;99.90;;;;;;4981625;28;20201;-42
2021/01/27 01:42:10;;;;;;;2.25;2.05;;;2.80;99.90;;;;;;4978261;28;20198;-37
2021/01/27 01:44:40;;;;;;;3.22;2.10;;;2.80;99.90;;;;;;4981781;28;20200;-39
2021/01/27 01:47:12;;;;;;;1.90;1.80;;;2.90;99.90;;;;;;4982140;28;20223;-39
2021/01/27 01:49:42;;;;;;;2.40;2.00;;;2.90;99.90;;;;;;4982726;28;20201;-38
2021/01/27 01:52:12;;;;;;;2.00;1.80;;;3.00;99.90;;;;;;4981891;28;20252;-37
2021/01/27 01:54:45;;;;;;;2.00;1.90;;;3.00;99.90;;;;;;4977065;28;20208;-39
2021/01/27 01:57:17;;;;;;;1.60;1.50;;;3.00;99.90;;;;;;4984821;28;20220;-38
2021/01/27 01:59:54;;;;;;;1.55;1.45;;;3.00;99.90;;;;;;4983629;28;20221;-39
2021/01/27 02:02:26;;;;;;;3.00;1.38;;;3.10;99.90;;;;;;4984010;28;20200;-39
2021/01/27 02:05:00;;;;;;;1.60;1.50;;;3.20;99.90;;;;;;4981116;28;20213;-39
2021/01/27 02:07:31;;;;;;;1.30;1.20;;;3.20;99.90;;;;;;4981011;28;20239;-39
2021/01/27 02:10:01;;;;;;;1.70;1.50;;;3.20;99.90;;;;;;4983072;28;20193;-40
2021/01/27 02:12:46;;;;;;;2.05;1.30;;;3.20;99.90;;;;;;4980974;28;20225;-42
2021/01/27 02:15:31;;;;;;;1.70;1.60;;;3.30;99.90;;;;;;4983522;28;20218;-46
2021/01/27 02:18:30;;;;;;;2.22;2.00;;;3.30;99.90;;;;;;4982791;28;20211;-42
2021/01/27 02:21:38;;;;;;;1.30;1.17;;;3.40;99.90;;;;;;4982788;28;20251;-39
2021/01/27 02:24:41;;;;;;;1.60;1.50;;;3.40;99.90;;;;;;4970671;28;20215;-39
2021/01/27 02:27:18;;;;;;;1.20;1.20;;;3.50;99.90;;;;;;4983763;28;20200;-40
2021/01/27 02:30:18;;;;;;;1.70;1.52;;;3.40;99.90;;;;;;4984030;28;20259;-37
2021/01/27 02:33:43;;;;;;;1.48;1.38;;;3.50;99.90;;;;;;4980841;28;20292;-40
2021/01/27 02:36:17;;;;;;;1.40;1.30;;;3.50;99.90;;;;;;4982580;28;20224;-39
2021/01/27 02:38:53;;;;;;;2.08;1.60;;;3.50;99.90;;;;;;4983770;28;20201;-39
2021/01/27 02:41:31;;;;;;;1.58;1.42;;;3.50;99.90;;;;;;4979965;28;20219;-40
2021/01/27 02:44:08;;;;;;;1.10;1.00;;;3.60;99.90;;;;;;4984030;28;20215;-40
2021/01/27 02:46:43;;;;;;;2.35;1.70;;;3.60;99.90;;;;;;4983144;28;20216;-40
2021/01/27 02:49:18;;;;;;;1.63;1.52;;;3.60;99.90;;;;;;4983740;28;20583;-40
2021/01/27 02:51:55;;;;;;;1.65;1.40;;;3.60;99.90;;;;;;4981787;28;20654;-39
2021/01/27 02:54:30;;;;;;;1.50;1.40;;;3.70;99.90;;;;;;4981929;28;20204;-38
2021/01/27 02:57:07;;;;;;;1.30;1.20;;;3.60;99.90;;;;;;4982206;28;20231;-41
2021/01/27 02:59:44;;;;;;;1.60;1.50;;;3.70;99.90;;;;;;4983004;28;20234;-40
2021/01/27 03:02:19;;;;;;;1.83;1.30;;;3.70;99.90;;;;;;4980792;28;20204;-40
2021/01/27 03:04:55;;;;;;;2.17;1.55;;;3.70;99.90;;;;;;4982354;28;20220;-41
2021/01/27 03:07:27;;;;;;;1.90;1.73;;;3.70;99.90;;;;;;4980369;28;20188;-40
2021/01/27 03:10:01;;;;;;;2.38;1.95;;;3.70;99.90;;;;;;4982927;28;20311;-40
2021/01/27 03:12:32;;;;;;;3.25;1.77;;;3.80;99.90;;;;;;4981129;28;20327;-39
2021/01/27 03:15:05;;;;;;;2.22;2.10;;;3.80;99.90;;;;;;4968504;28;20215;-40
2021/01/27 03:17:36;;;;;;;1.40;1.30;;;3.80;99.90;;;;;;4967620;28;20233;-41
2021/01/27 03:20:10;;;;;;;1.52;1.40;;;3.80;99.90;;;;;;4984215;28;20291;-39
2021/01/27 03:22:46;;;;;;;2.22;1.65;;;3.80;99.90;;;;;;4981695;28;20736;-39
2021/01/27 03:25:23;;;;;;;2.15;2.03;;;3.90;99.90;;;;;;4981263;28;20244;-40
2021/01/27 03:28:01;;;;;;;3.97;1.83;;;3.90;99.90;;;;;;4984496;28;20220;-40
2021/01/27 03:30:32;;;;;;;1.98;1.70;;;3.90;99.90;;;;;;4976618;28;20201;-40
2021/01/27 03:33:07;;;;;;;1.95;1.85;;;3.90;99.90;;;;;;4981132;28;20205;-40
2021/01/27 03:35:41;;;;;;;1.60;1.50;;;3.90;99.90;;;;;;4982105;28;20297;-40
2021/01/27 03:38:19;;;;;;;1.70;1.60;;;3.90;99.90;;;;;;4980486;28;20189;-40
2021/01/27 03:40:52;;;;;;;1.60;1.50;;;3.90;99.90;;;;;;4969151;28;20189;-40
2021/01/27 03:43:28;;;;;;;1.58;1.40;;;3.90;99.90;;;;;;4981831;28;20224;-39
2021/01/27 03:46:03;;;;;;;1.30;1.20;;;3.90;99.90;;;;;;4980731;28;20215;-39
2021/01/27 03:48:39;;;;;;;5.75;1.38;;;4.00;99.90;;;;;;4983056;28;20630;-39
2021/01/27 03:51:11;;;;;;;1.23;1.13;;;4.00;99.90;;;;;;4981146;28;20200;-41
2021/01/27 03:53:43;;;;;;;1.50;1.30;;;4.00;99.90;;;;;;4981471;28;20201;-43
2021/01/27 03:56:19;;;;;;;1.85;1.30;;;4.00;99.90;;;;;;4977262;28;20221;-42
2021/01/27 03:58:50;;;;;;;4.35;1.88;;;4.00;99.90;;;;;;4979558;28;20189;-44
2021/01/27 04:01:21;;;;;;;2.13;1.67;;;4.10;99.90;;;;;;4978426;28;20227;-40
2021/01/27 04:03:53;;;;;;;1.60;1.50;;;4.10;99.90;;;;;;4979824;28;20234;-39
2021/01/27 04:06:23;;;;;;;2.10;1.90;;;4.10;99.90;;;;;;4980255;28;20527;-40
2021/01/27 04:08:54;;;;;;;2.50;1.88;;;4.10;99.90;;;;;;4976327;28;21228;-40
2021/01/27 04:11:25;;;;;;;1.55;1.45;;;4.10;99.90;;;;;;4977230;28;20201;-40
2021/01/27 04:13:56;;;;;;;1.95;1.85;;;4.10;99.90;;;;;;4981214;28;20471;-42
2021/01/27 04:16:26;;;;;;;1.60;1.50;;;4.20;99.90;;;;;;4981233;28;20248;-41
2021/01/27 04:19:00;;;;;;;1.45;1.35;;;4.20;99.90;;;;;;4979280;28;20243;-42
2021/01/27 04:21:30;;;;;;;2.22;2.05;;;4.20;99.90;;;;;;4977711;28;20212;-41
2021/01/27 04:24:02;;;;;;;1.63;1.52;;;4.10;99.90;;;;;;4973978;28;20205;-41
2021/01/27 04:26:32;;;;;;;1.60;1.50;;;4.20;99.90;;;;;;4979871;28;20248;-41
2021/01/27 04:29:02;;;;;;;1.70;1.60;;;4.20;99.90;;;;;;4981478;28;20208;-40
2021/01/27 04:31:32;;;;;;;1.77;1.20;;;4.20;99.90;;;;;;4978442;28;20316;-41
2021/01/27 04:34:03;;;;;;;1.17;1.05;;;4.20;99.90;;;;;;4981697;28;20205;-42
2021/01/27 04:36:33;;;;;;;1.95;1.13;;;4.20;99.90;;;;;;4979859;28;20314;-41
2021/01/27 04:39:05;;;;;;;0.80;0.80;;;4.20;99.90;;;;;;4983695;28;20227;-41
2021/01/27 04:41:35;;;;;;;1.10;1.00;;;4.20;99.90;;;;;;4975276;28;20200;-42
2021/01/27 04:44:05;;;;;;;1.77;1.00;;;4.20;99.90;;;;;;4975212;28;20279;-40
2021/01/27 04:46:38;;;;;;;1.30;1.30;;;4.20;99.90;;;;;;4978985;28;20217;-40
2021/01/27 04:49:16;;;;;;;1.65;1.55;;;4.20;99.90;;;;;;4982332;28;20232;-41
2021/01/27 04:51:52;;;;;;;1.20;1.20;;;4.20;99.90;;;;;;4977609;28;20264;-41
2021/01/27 04:54:36;;;;;;;2.63;1.80;;;4.20;99.90;;;;;;4977336;28;20205;-40
2021/01/27 04:57:19;;;;;;;2.53;1.60;;;4.20;99.90;;;;;;4978499;28;20235;-41
2021/01/27 05:00:18;;;;;;;0.90;0.90;;;4.20;99.90;;;;;;4979916;28;20204;-41
2021/01/27 05:03:28;;;;;;;0.80;0.80;;;4.20;99.90;;;;;;4974669;28;20204;-47
2021/01/27 05:06:04;;;;;;;0.60;0.60;;;4.20;99.90;;;;;;4980101;28;20223;-42
2021/01/27 05:08:41;;;;;;;1.00;1.00;;;4.10;99.90;;;;;;4980911;28;20212;-42
2021/01/27 05:11:15;;;;;;;0.80;0.80;;;4.10;99.90;;;;;;4978824;28;20243;-39
2021/01/27 05:13:50;;;;;;;0.77;0.77;;;4.10;99.90;;;;;;4975820;28;20634;-43
2021/01/27 05:16:24;;;;;;;1.10;1.00;;;4.10;99.90;;;;;;4981701;28;20239;-39
2021/01/27 05:18:57;;;;;;;1.25;1.17;;;4.10;99.90;;;;;;4974995;28;20208;-38
2021/01/27 05:21:31;;;;;;;1.92;1.70;;;4.20;99.90;;;;;;4981126;28;20219;-40
2021/01/27 05:24:03;;;;;;;1.10;1.10;;;4.10;99.90;;;;;;4971665;28;20222;-41
2021/01/27 05:26:40;;;;;;;1.80;0.90;;;4.10;99.90;;;;;;4979850;28;20220;-43
2021/01/27 05:29:17;;;;;;;1.13;1.13;;;4.10;99.90;;;;;;4981046;28;20212;-44
2021/01/27 05:32:02;;;;;;;0.80;0.80;;;4.10;99.90;;;;;;4979525;28;20762;-41
2021/01/27 05:34:36;;;;;;;1.42;1.30;;;4.10;99.90;;;;;;4981033;28;20216;-42
2021/01/27 05:37:10;;;;;;;1.23;1.13;;;4.10;99.90;;;;;;4978842;28;20243;-41
2021/01/27 05:39:41;;;;;;;1.00;0.90;;;4.20;99.90;;;;;;4978728;28;20204;-40
2021/01/27 05:42:33;;;;;;;1.85;1.40;;;4.20;99.90;;;;;;4978688;28;20235;-42
2021/01/27 05:45:27;;;;;;;1.10;1.10;;;4.30;99.90;;;;;;4980981;28;20216;-40
2021/01/27 05:48:11;;;;;;;1.45;1.35;;;4.30;99.90;;;;;;4979366;28;20213;-39
2021/01/27 05:50:42;;;;;;;1.45;0.80;;;4.30;99.90;;;;;;4978821;28;20201;-38
2021/01/27 05:53:15;;;;;;;1.10;0.80;;;4.30;99.90;;;;;;4979503;28;20205;-40
2021/01/27 05:56:03;;;;;;;0.93;0.93;;;4.30;99.90;;;;;;4980455;28;20205;-41
2021/01/27 05:58:37;;;;;;;1.67;0.85;;;4.40;99.90;;;;;;4979263;28;20604;-40
2021/01/27 06:01:38;;;;;;;0.90;0.90;;;4.30;99.90;;;;;;4979102;28;20209;-40
2021/01/27 06:04:23;;;;;;;1.92;1.58;;;4.30;99.90;;;;;;4964725;28;20299;-40
2021/01/27 06:07:07;;;;;;;1.00;0.90;;;4.20;99.90;;;;;;4980397;28;20224;-40
2021/01/27 06:09:40;;;;;;;1.33;0.80;;;4.20;99.90;;;;;;4979382;28;20204;-40
2021/01/27 06:12:26;;;;;;;1.10;1.00;;;4.20;99.90;;;;;;4979815;28;20232;-40
2021/01/27 06:15:16;;;;;;;1.25;1.15;;;4.20;99.90;;;;;;4981305;28;20209;-41
2021/01/27 06:17:48;;;;;;;1.98;1.17;;;4.20;99.90;;;;;;4977836;28;20232;-41
2021/01/27 06:20:31;;;;;;;1.48;1.35;;;4.20;99.90;;;;;;4979219;28;20213;-39
2021/01/27 06:23:39;;;;;;;1.10;1.00;;;4.10;99.90;;;;;;4978361;28;20286;-39
2021/01/27 06:26:39;;;;;;;1.27;1.17;;;4.10;99.90;;;;;;4979131;28;20267;-37
2021/01/27 06:29:25;;;;;;;1.30;1.17;;;4.00;99.90;;;;;;4981107;28;20209;-37
2021/01/27 06:32:21;;;;;;;1.35;1.30;;;4.10;99.90;;;;;;4979633;28;20577;-39
2021/01/27 06:35:09;;;;;;;1.05;0.98;;;4.10;99.90;;;;;;4982811;28;20228;-39
2021/01/27 06:37:55;;;;;;;1.25;0.93;;;4.20;99.90;;;;;;4971089;28;20233;-39
2021/01/27 06:40:47;;;;;;;1.33;1.30;;;4.10;99.90;;;;;;4982054;28;21764;-39
2021/01/27 06:43:34;;;;;;;1.02;1.02;;;4.20;99.90;;;;;;4981010;28;20193;-39
2021/01/27 06:46:24;;;;;;;1.00;0.95;;;4.10;99.90;;;;;;4982705;28;20216;-39
2021/01/27 06:49:18;;;;;;;0.88;0.85;;;4.10;99.90;;;;;;4983848;28;20848;-39
2021/01/27 06:52:14;;;;;;;1.45;1.35;;;4.10;99.90;;;;;;4982892;28;20216;-39
2021/01/27 06:55:08;;;;;;;2.15;1.80;;;4.10;99.90;;;;;;4983893;28;20216;-39
2021/01/27 06:57:55;;;;;;;1.55;1.45;;;4.20;99.90;;;;;;4980878;28;20232;-39
2021/01/27 07:00:44;;;;;;;1.40;1.30;;;4.20;99.90;;;;;;4982804;28;20252;-38
2021/01/27 07:03:50;;;;;;;0.90;0.90;;;4.30;99.90;;;;;;4982985;28;20224;-38
2021/01/27 07:07:02;;;;;;;1.33;1.23;;;4.20;99.90;;;;;;4982835;28;20200;-39
2021/01/27 07:09:46;;;;;;;1.40;1.30;;;4.30;99.90;;;;;;4983085;28;20220;-39
2021/01/27 07:12:25;;;;;;;0.80;0.80;;;4.30;99.90;;;;;;4973892;28;20236;-39
2021/01/27 07:15:29;;;;;;;1.00;1.00;;;4.30;99.90;;;;;;4979565;28;20231;-39
2021/01/27 07:18:31;;;;;;;2.22;1.50;;;4.40;99.90;;;;;;4980817;28;20282;-38
2021/01/27 07:21:08;;;;;;;1.30;1.20;;;4.40;99.90;;;;;;4921105;29;20698;-40
2021/01/27 07:23:49;;;;;;;1.60;1.50;;;4.50;99.90;;;;;;4922050;29;20266;-39
2021/01/27 07:26:24;;;;;;;1.30;1.20;;;4.50;99.90;;;;;;4921732;29;20214;-38
2021/01/27 07:29:02;;;;;;;2.65;1.40;;;4.50;99.90;;;;;;4920465;29;20217;-38
2021/01/27 07:31:35;;;;;;;1.35;1.25;;;4.60;99.90;;;;;;4922277;29;20270;-39
2021/01/27 07:34:29;;;;;;;1.20;1.10;;;4.60;99.90;;;;;;4921814;29;20312;-38
2021/01/27 07:37:13;;;;;;;2.13;1.15;;;4.60;99.90;;;;;;4909735;29;20287;-39
2021/01/27 07:39:54;;;;;;;2.08;1.55;;;4.60;99.90;;;;;;4912931;29;20290;-39
2021/01/27 07:42:29;;;;;;;1.20;1.10;;;4.50;99.90;;;;;;4920279;29;20310;-39
2021/01/27 07:45:01;;;;;;;1.75;1.65;;;4.50;99.90;;;;;;4922736;29;20202;-39
2021/01/27 07:47:46;;;;;;;1.35;1.25;;;4.50;99.90;;;;;;4922102;29;20243;-39
2021/01/27 07:50:18;;;;;;;1.60;1.50;;;4.60;99.90;;;;;;4924505;29;20249;-39
2021/01/27 07:53:03;;;;;;;2.00;1.90;;;4.50;99.90;;;;;;4919297;29;20561;-39
2021/01/27 07:55:45;;;;;;;1.50;1.40;;;4.50;99.90;;;;;;4920698;29;20214;-39
2021/01/27 07:58:19;;;;;;;1.65;1.55;;;4.50;99.90;;;;;;4968301;28;20283;-39
2021/01/27 08:00:57;;;;;;;1.70;1.60;;;4.50;99.90;;;;;;4981295;28;20259;-39
2021/01/27 08:03:37;;;;;;;2.30;2.10;;;4.50;99.90;;;;;;4979833;28;20239;-39
2021/01/27 08:06:11;;;;;;;2.00;1.80;;;4.50;99.90;;;;;;4980179;28;20201;-38
2021/01/27 08:08:54;;;;;;;1.95;1.75;;;4.50;99.90;;;;;;4983343;28;20239;-39
2021/01/27 08:11:33;;;;;;;1.73;1.63;;;4.40;99.90;;;;;;4978954;28;20212;-39
2021/01/27 08:14:05;;;;;;;2.08;1.88;;;4.40;99.90;;;;;;4981421;28;20205;-39
2021/01/27 08:16:37;;;;;;;2.55;2.13;;;4.40;99.90;;;;;;4981158;28;20263;-39
2021/01/27 08:19:23;;;;;;;2.15;2.00;;;4.50;99.90;;;;;;4981069;28;20201;-39
2021/01/27 08:21:58;;;;;;;3.42;1.80;;;4.50;99.90;;;;;;4980564;28;20232;-39
2021/01/27 08:24:50;;;;;;;2.63;2.42;;;4.50;99.90;;;;;;4979755;28;20247;-39
2021/01/27 08:27:33;;;;;;;2.20;2.00;;;4.50;99.90;;;;;;4973986;28;20232;-39
2021/01/27 08:30:25;;;;;;;4.82;2.30;;;4.50;99.90;;;;;;4971248;28;20192;-40
2021/01/27 08:33:40;;;;;;;2.17;2.03;;;4.40;99.90;;;;;;4976552;28;20756;-39
2021/01/27 08:36:13;;;;;;;3.80;2.78;;;4.50;99.90;;;;;;4979678;28;20204;-40
2021/01/27 08:38:47;;;;;;;4.63;3.10;;;4.50;99.90;;;;;;4980871;28;20276;-39
2021/01/27 08:41:40;;;;;;;2.80;2.60;;;4.50;99.90;;;;;;4976532;28;20213;-39
2021/01/27 08:44:23;;;;;;;3.03;2.72;;;4.50;99.90;;;;;;4975495;28;20271;-40
2021/01/27 08:46:56;;;;;;;3.20;2.63;;;4.40;99.90;;;;;;4979380;28;20208;-40
2021/01/27 08:49:51;;;;;;;2.97;2.47;;;4.40;99.90;;;;;;4982233;28;20239;-40
2021/01/27 08:52:38;;;;;;;2.45;2.33;;;4.30;99.90;;;;;;4973369;28;20205;-39
2021/01/27 08:55:47;;;;;;;2.67;2.17;;;4.30;99.90;;;;;;4979312;28;20213;-40
2021/01/27 08:58:35;;;;;;;3.70;3.40;;;4.40;99.90;;;;;;4974298;28;20232;-40
2021/01/27 09:01:26;;;;;;;2.50;2.30;;;4.40;99.90;;;;;;4978557;28;20231;-41
2021/01/27 09:03:58;;;;;;;2.33;2.10;;;4.50;99.90;;;;;;4965980;28;20201;-40
2021/01/27 09:06:49;;;;;;;3.55;2.72;;;4.50;99.90;;;;;;4972306;28;20303;-40
2021/01/27 09:09:28;;;;;;;2.83;2.63;;;4.50;99.90;;;;;;4977579;28;20216;-40
2021/01/27 09:12:01;;;;;;;3.22;2.92;;;4.50;99.90;;;;;;4980703;28;20236;-40
2021/01/27 09:14:31;;;;;;;3.75;3.00;;;4.50;99.90;;;;;;4972397;28;20252;-40
2021/01/27 09:17:05;;;;;;;3.45;2.70;;;4.50;99.90;;;;;;4979921;28;20235;-40
2021/01/27 09:19:38;;;;;;;5.50;4.40;;;4.50;99.90;;;;;;4980608;28;20208;-40
2021/01/27 09:22:14;;;;;;;5.53;4.95;;;4.50;99.90;;;;;;4980844;28;20240;-40
2021/01/27 09:24:46;;;;;;;4.32;3.60;;;4.60;99.90;;;;;;4979017;28;20219;-41
2021/01/27 09:27:22;;;;;;;4.53;4.10;;;4.70;99.90;;;;;;4980568;28;20240;-40
2021/01/27 09:30:02;;;;;;;4.50;4.10;;;4.70;99.90;;;;;;4980635;28;20254;-41
2021/01/27 09:32:33;;;;;;;6.57;5.13;;;4.70;99.90;;;;;;4974906;28;20276;-41
2021/01/27 09:35:20;;;;;;;4.65;4.25;;;4.70;99.90;;;;;;4977244;28;20272;-40
2021/01/27 09:37:56;;;;;;;4.50;4.07;;;4.60;99.90;;;;;;4980625;28;20236;-41
2021/01/27 09:40:30;;;;;;;4.45;4.05;;;4.60;99.90;;;;;;4981220;28;20279;-41
2021/01/27 09:43:08;;;;;;;4.93;4.53;;;4.60;99.90;;;;;;4979449;28;20254;-41
2021/01/27 09:45:39;;;;;;;4.38;3.97;;;4.60;99.90;;;;;;4974650;28;20244;-41
2021/01/27 09:48:12;;;;;;;6.07;4.95;;;4.70;99.90;;;;;;4982396;28;20216;-41
2021/01/27 09:50:46;;;;;;;5.97;4.63;;;4.60;99.90;;;;;;4980295;28;20266;-41
2021/01/27 09:53:26;;;;;;;4.00;3.70;;;4.60;99.90;;;;;;4980608;28;20200;-42
2021/01/27 09:55:56;;;;;;;5.20;3.45;;;4.70;99.90;;;;;;4978676;28;20255;-41
2021/01/27 09:58:27;;;;;;;4.22;3.65;;;4.60;99.90;;;;;;4979522;28;20224;-42
2021/01/27 10:01:02;;;;;;;3.88;3.20;;;4.50;99.90;;;;;;4976262;28;20264;-40
2021/01/27 10:03:37;;;;;;;3.10;2.90;;;4.50;99.90;;;;;;4979015;28;20303;-40
2021/01/27 10:06:35;;;;;;;4.30;4.00;;;4.60;99.90;;;;;;4978804;28;20545;-41
2021/01/27 10:09:09;;;;;;;4.63;3.20;;;4.60;99.90;;;;;;4985434;28;20267;-40
2021/01/27 10:11:40;;;;;;;4.00;3.60;;;4.60;99.90;;;;;;4983472;28;20235;-41
2021/01/27 10:14:14;;;;;;;5.20;3.42;;;4.60;99.90;;;;;;4984313;28;20267;-42
2021/01/27 10:16:51;;;;;;;3.60;3.30;;;4.60;99.90;;;;;;4982825;28;20670;-41
2021/01/27 10:19:26;;;;;;;3.35;3.05;;;4.60;99.90;;;;;;4976045;28;20228;-41
2021/01/27 10:21:59;;;;;;;4.13;3.45;;;4.50;99.90;;;;;;4981502;28;20223;-41
2021/01/27 10:24:49;;;;;;;3.17;2.85;;;4.60;99.90;;;;;;4983139;28;20209;-42
2021/01/27 10:27:22;;;;;;;3.40;3.10;;;4.50;99.90;;;;;;4980630;28;20208;-44
2021/01/27 10:29:53;;;;;;;3.70;3.40;;;4.40;99.90;;;;;;4984884;28;20209;-41
2021/01/27 10:32:36;;;;;;;3.50;3.20;;;4.50;99.90;;;;;;4984813;28;20235;-41
2021/01/27 10:35:30;;;;;;;4.97;4.55;;;4.50;99.90;;;;;;4978754;28;20243;-41
2021/01/27 10:38:22;;;;;;;4.00;3.67;;;4.50;99.90;;;;;;4981049;28;20283;-40
2021/01/27 10:41:22;;;;;;;3.72;3.38;;;4.40;99.90;;;;;;4985236;28;20213;-41
2021/01/27 10:43:52;;;;;;;4.75;4.18;;;4.50;99.90;;;;;;4985596;28;20239;-41
2021/01/27 10:46:29;;;;;;;4.68;4.15;;;4.50;99.90;;;;;;4983953;28;20231;-41
2021/01/27 10:49:00;;;;;;;8.07;4.65;;;4.50;99.90;;;;;;4983528;28;20272;-41
2021/01/27 10:51:31;;;;;;;4.88;4.30;;;4.50;99.90;;;;;;4984022;28;20227;-40
2021/01/27 10:54:03;;;;;;;4.32;3.92;;;4.50;99.90;;;;;;4981653;28;20232;-40
2021/01/27 10:56:34;;;;;;;4.10;3.80;;;4.50;99.90;;;;;;4974237;28;20274;-40
2021/01/27 10:59:04;;;;;;;4.45;3.70;;;4.50;99.90;;;;;;4983545;28;20204;-40
2021/01/27 11:01:34;;;;;;;5.10;4.70;;;4.60;99.90;;;;;;4981581;28;20274;-41
2021/01/27 11:04:06;;;;;;;4.30;3.90;;;4.60;99.90;;;;;;4974780;28;20213;-40
2021/01/27 11:06:40;;;;;;;5.20;4.70;;;4.60;99.90;;;;;;4974388;28;20220;-40
2021/01/27 11:09:11;;;;;;;4.55;4.10;;;4.60;99.90;;;;;;4978905;28;20197;-40
2021/01/27 11:11:41;;;;;;;3.22;2.92;;;4.60;99.90;;;;;;4970656;28;20228;-41
2021/01/27 11:14:12;;;;;;;3.25;2.85;;;4.60;99.90;;;;;;4979637;28;20691;-40
2021/01/27 11:16:43;;;;;;;2.88;2.67;;;4.50;99.90;;;;;;4983467;28;20213;-40
2021/01/27 11:19:13;;;;;;;2.70;2.50;;;4.50;99.90;;;;;;4975969;28;20231;-41
2021/01/27 11:21:45;;;;;;;3.03;2.45;;;4.50;99.90;;;;;;4974969;28;20343;-41
2021/01/27 11:24:15;;;;;;;2.10;2.00;;;4.60;99.90;;;;;;4978465;28;20243;-41
2021/01/27 11:26:45;;;;;;;2.80;2.60;;;4.70;99.90;;;;;;4971645;28;20192;-40
2021/01/27 11:29:15;;;;;;;1.98;1.88;;;4.60;99.90;;;;;;4984382;28;20228;-40
2021/01/27 11:31:45;;;;;;;1.83;1.60;;;4.60;99.90;;;;;;4983645;28;20216;-40
2021/01/27 11:34:15;;;;;;;1.80;1.70;;;4.60;99.90;;;;;;4982612;28;20556;-40
2021/01/27 11:36:46;;;;;;;1.65;1.55;;;4.50;99.90;;;;;;4983170;28;20208;-43
2021/01/27 11:39:16;;;;;;;1.70;1.60;;;4.30;99.90;;;;;;4981640;28;20273;-40
2021/01/27 11:41:47;;;;;;;2.05;1.55;;;4.30;99.90;;;;;;4972156;28;20210;-40
2021/01/27 11:44:17;;;;;;;1.90;1.80;;;4.20;99.90;;;;;;4982865;28;20205;-40
2021/01/27 11:46:48;;;;;;;1.60;1.50;;;4.10;99.90;;;;;;4981328;28;20201;-40
2021/01/27 11:49:18;;;;;;;1.60;1.50;;;4.20;99.90;;;;;;4980325;28;20212;-40
2021/01/27 11:51:49;;;;;;;2.25;2.10;;;4.20;99.90;;;;;;4983004;28;20205;-40
2021/01/27 11:54:19;;;;;;;2.15;1.95;;;4.10;99.90;;;;;;4979884;28;20302;-40
2021/01/27 11:56:49;;;;;;;2.30;2.17;;;4.10;99.90;;;;;;4981060;28;20204;-39
2021/01/27 11:59:19;;;;;;;2.30;2.10;;;4.00;99.90;;;;;;4981131;28;20911;-39
2021/01/27 12:01:49;;;;;;;2.38;2.25;;;4.00;99.90;;;;;;4981869;28;20219;-41
2021/01/27 12:04:19;;;;;;;2.67;2.40;;;4.10;99.90;;;;;;4979941;28;20204;-41
2021/01/27 12:06:50;;;;;;;3.15;2.40;;;4.10;99.90;;;;;;4981874;28;20268;-40
2021/01/27 12:09:20;;;;;;;2.72;2.28;;;4.00;99.90;;;;;;4980578;28;20236;-40
2021/01/27 12:11:51;;;;;;;2.40;2.20;;;4.00;99.90;;;;;;4981348;28;20595;-39
2021/01/27 12:14:21;;;;;;;2.28;2.13;;;3.90;99.90;;;;;;4982655;28;20764;-40
2021/01/27 12:16:52;;;;;;;2.03;1.88;;;4.10;99.90;;;;;;4981962;28;20209;-40
2021/01/27 12:19:29;;;;;;;2.85;2.38;;;4.10;99.90;;;;;;4982948;28;20208;-40
2021/01/27 12:22:00;;;;;;;2.72;2.53;;;4.00;99.90;;;;;;4982451;28;20232;-41
2021/01/27 12:24:30;;;;;;;2.45;1.70;;;4.00;99.90;;;;;;4979811;28;20200;-40
2021/01/27 12:27:00;;;;;;;2.35;2.20;;;4.00;99.90;;;;;;4980233;28;20213;-39
2021/01/27 12:29:30;;;;;;;2.28;2.17;;;4.10;99.90;;;;;;4981013;28;20205;-40
2021/01/27 12:32:00;;;;;;;2.42;2.25;;;4.20;99.90;;;;;;4980849;28;20213;-39
2021/01/27 12:34:30;;;;;;;2.47;2.28;;;4.10;99.90;;;;;;4980705;28;20240;-40
2021/01/27 12:37:02;;;;;;;2.55;2.35;;;4.20;99.90;;;;;;4982744;28;20236;-40
2021/01/27 12:39:32;;;;;;;2.53;2.33;;;4.10;99.90;;;;;;4983781;28;20257;-40
2021/01/27 12:42:02;;;;;;;2.25;2.15;;;4.30;99.90;;;;;;4978279;28;20220;-40
2021/01/27 12:44:45;;;;;;;3.25;2.95;;;4.30;99.90;;;;;;4980533;28;20212;-40
2021/01/27 12:47:17;;;;;;;3.05;2.85;;;4.30;99.90;;;;;;4981918;28;20278;-40
2021/01/27 12:49:47;;;;;;;2.85;2.63;;;4.30;99.90;;;;;;4981238;28;20267;-40
2021/01/27 12:52:18;;;;;;;3.30;3.00;;;4.30;99.90;;;;;;4979051;28;20204;-39
2021/01/27 12:54:48;;;;;;;4.22;2.50;;;4.20;99.90;;;;;;4983935;28;20274;-40
2021/01/27 12:57:18;;;;;;;2.55;2.35;;;4.10;99.90;;;;;;4980626;28;20327;-40
2021/01/27 12:59:48;;;;;;;2.50;2.30;;;4.10;99.90;;;;;;4980748;28;20316;-39
2021/01/27 13:02:18;;;;;;;2.45;2.25;;;4.00;99.90;;;;;;4978238;28;20212;-40
2021/01/27 13:04:48;;;;;;;2.80;2.60;;;4.10;99.90;;;;;;4982087;28;20224;-40
2021/01/27 13:07:19;;;;;;;2.90;2.47;;;4.20;99.90;;;;;;4982077;28;20593;-40
2021/01/27 13:09:49;;;;;;;2.40;2.20;;;4.30;99.90;;;;;;4980191;28;20662;-40
2021/01/27 13:12:20;;;;;;;2.70;2.50;;;4.20;99.90;;;;;;4978850;28;20303;-40
2021/01/27 13:14:50;;;;;;;2.97;2.72;;;4.10;99.90;;;;;;4979996;28;20208;-41
2021/01/27 13:17:30;;;;;;;2.53;2.40;;;4.20;99.90;;;;;;4979568;28;20234;-40
2021/01/27 13:20:00;;;;;;;2.72;2.53;;;4.30;99.90;;;;;;4981937;28;20228;-40
2021/01/27 13:22:32;;;;;;;3.78;3.47;;;4.40;99.90;;;;;;4978629;28;20205;-40
2021/01/27 13:25:02;;;;;;;3.90;3.58;;;4.40;99.90;;;;;;4979207;28;20310;-40
2021/01/27 13:27:32;;;;;;;4.47;4.18;;;4.30;99.90;;;;;;4977952;28;21885;-40
2021/01/27 13:30:02;;;;;;;5.70;4.53;;;4.20;99.90;;;;;;4982060;28;20205;-39
2021/01/27 13:32:32;;;;;;;5.63;3.60;;;4.20;99.90;;;;;;4977888;28;20220;-40
2021/01/27 13:35:02;;;;;;;4.43;4.03;;;4.20;99.90;;;;;;4979524;28;20536;-40
2021/01/27 13:37:33;;;;;;;4.65;4.25;;;4.30;99.90;;;;;;4980954;28;20252;-41
2021/01/27 13:40:04;;;;;;;5.15;4.65;;;4.30;99.90;;;;;;4979774;28;20209;-40
2021/01/27 13:42:34;;;;;;;4.88;4.43;;;4.40;99.90;;;;;;4980549;28;20213;-40
2021/01/27 13:45:04;;;;;;;4.90;4.50;;;4.40;99.90;;;;;;4985560;28;20208;-40
2021/01/27 13:47:35;;;;;;;5.25;4.75;;;4.30;99.90;;;;;;4984908;28;20267;-40